sensor_id;sensor_type;location;lat;lon;timestamp;pressure;altitude;pressure_sealevel;temperature;humidity
67980;BME280;54760;47.490;19.030;2023-05-29T00:00:31;100046.41;;;17.31;47.04
67980;BME280;54760;47.490;19.030;2023-05-29T00:02:57;100052.50;;;17.45;46.76
67980;BME280;54760;47.490;19.030;2023-05-29T00:05:22;100042.25;;;17.36;46.80
67980;BME280;54760;47.490;19.030;2023-05-29T00:07:48;100047.19;;;17.32;46.91
67980;BME280;54760;47.490;19.030;2023-05-29T00:10:15;100048.00;;;17.14;47.57
67980;BME280;54760;47.490;19.030;2023-05-29T00:12:41;100045.34;;;17.29;47.05
67980;BME280;54760;47.490;19.030;2023-05-29T00:15:07;100045.22;;;17.23;47.14
67980;BME280;54760;47.490;19.030;2023-05-29T00:17:33;100055.03;;;17.33;47.14
67980;BME280;54760;47.490;19.030;2023-05-29T00:19:59;100052.62;;;16.99;48.08
67980;BME280;54760;47.490;19.030;2023-05-29T00:22:26;100057.97;;;17.21;47.89
67980;BME280;54760;47.490;19.030;2023-05-29T00:24:52;100072.53;;;17.30;48.88
67980;BME280;54760;47.490;19.030;2023-05-29T00:27:18;100058.13;;;17.17;49.57
67980;BME280;54760;47.490;19.030;2023-05-29T00:29:43;100072.41;;;17.34;49.94
67980;BME280;54760;47.490;19.030;2023-05-29T00:32:09;100074.16;;;17.55;49.51
67980;BME280;54760;47.490;19.030;2023-05-29T00:34:35;100072.09;;;17.23;50.74
67980;BME280;54760;47.490;19.030;2023-05-29T00:37:00;100079.94;;;17.15;51.08
67980;BME280;54760;47.490;19.030;2023-05-29T00:39:26;100074.94;;;17.56;50.57
67980;BME280;54760;47.490;19.030;2023-05-29T00:41:52;100071.03;;;17.29;51.31
67980;BME280;54760;47.490;19.030;2023-05-29T00:44:18;100062.34;;;17.46;50.74
67980;BME280;54760;47.490;19.030;2023-05-29T00:46:44;100068.38;;;17.35;51.04
67980;BME280;54760;47.490;19.030;2023-05-29T00:49:09;100065.81;;;16.50;53.53
67980;BME280;54760;47.490;19.030;2023-05-29T00:51:37;100053.22;;;17.12;51.79
67980;BME280;54760;47.490;19.030;2023-05-29T00:54:04;100056.94;;;16.91;52.20
67980;BME280;54760;47.490;19.030;2023-05-29T00:56:32;100051.97;;;17.22;51.25
67980;BME280;54760;47.490;19.030;2023-05-29T00:58:58;100060.28;;;17.22;51.40
67980;BME280;54760;47.490;19.030;2023-05-29T01:01:24;100048.03;;;17.05;52.00
67980;BME280;54760;47.490;19.030;2023-05-29T01:03:49;100050.78;;;16.96;52.27
67980;BME280;54760;47.490;19.030;2023-05-29T01:06:19;100051.06;;;17.07;52.06
67980;BME280;54760;47.490;19.030;2023-05-29T01:08:46;100043.97;;;17.15;51.57
67980;BME280;54760;47.490;19.030;2023-05-29T01:14:10;100045.88;;;16.91;51.29
67980;BME280;54760;47.490;19.030;2023-05-29T01:16:50;100055.69;;;17.19;50.47
67980;BME280;54760;47.490;19.030;2023-05-29T01:20:06;100051.56;;;16.97;50.74
67980;BME280;54760;47.490;19.030;2023-05-29T01:22:14;100058.31;;;17.05;50.40
67980;BME280;54760;47.490;19.030;2023-05-29T01:25:02;100055.22;;;17.12;50.22
67980;BME280;54760;47.490;19.030;2023-05-29T01:27:31;100052.91;;;17.19;49.97
67980;BME280;54760;47.490;19.030;2023-05-29T01:29:58;100041.13;;;16.92;50.62
67980;BME280;54760;47.490;19.030;2023-05-29T01:32:26;100045.09;;;17.09;50.33
67980;BME280;54760;47.490;19.030;2023-05-29T01:34:51;100031.78;;;16.80;51.14
67980;BME280;54760;47.490;19.030;2023-05-29T01:37:17;100034.22;;;16.51;52.16
67980;BME280;54760;47.490;19.030;2023-05-29T01:39:42;100040.03;;;16.43;52.28
67980;BME280;54760;47.490;19.030;2023-05-29T01:42:08;100026.81;;;16.57;52.00
67980;BME280;54760;47.490;19.030;2023-05-29T01:44:35;100031.28;;;16.54;52.13
67980;BME280;54760;47.490;19.030;2023-05-29T01:47:02;100036.38;;;16.56;52.04
67980;BME280;54760;47.490;19.030;2023-05-29T01:49:28;100026.87;;;16.75;51.33
67980;BME280;54760;47.490;19.030;2023-05-29T01:51:54;100028.69;;;16.78;51.20
67980;BME280;54760;47.490;19.030;2023-05-29T01:54:20;100022.69;;;16.98;50.70
67980;BME280;54760;47.490;19.030;2023-05-29T01:56:46;100025.31;;;16.83;51.09
67980;BME280;54760;47.490;19.030;2023-05-29T01:59:13;100025.31;;;16.74;51.52
67980;BME280;54760;47.490;19.030;2023-05-29T02:01:39;100027.16;;;16.68;51.80
67980;BME280;54760;47.490;19.030;2023-05-29T02:04:05;100026.56;;;16.64;52.20
67980;BME280;54760;47.490;19.030;2023-05-29T02:06:30;100026.09;;;16.65;52.26
67980;BME280;54760;47.490;19.030;2023-05-29T02:08:56;100021.97;;;16.61;52.38
67980;BME280;54760;47.490;19.030;2023-05-29T02:11:21;100017.75;;;16.38;53.14
67980;BME280;54760;47.490;19.030;2023-05-29T02:13:47;100012.25;;;16.47;53.11
67980;BME280;54760;47.490;19.030;2023-05-29T02:16:12;100019.91;;;15.57;55.73
67980;BME280;54760;47.490;19.030;2023-05-29T02:18:37;100017.59;;;15.56;56.01
67980;BME280;54760;47.490;19.030;2023-05-29T02:21:03;100011.13;;;15.99;54.71
67980;BME280;54760;47.490;19.030;2023-05-29T02:23:28;100011.34;;;15.74;55.68
67980;BME280;54760;47.490;19.030;2023-05-29T02:25:54;100006.00;;;15.70;55.94
67980;BME280;54760;47.490;19.030;2023-05-29T02:28:20;100009.94;;;16.27;54.02
67980;BME280;54760;47.490;19.030;2023-05-29T02:30:45;100007.81;;;16.31;53.95
67980;BME280;54760;47.490;19.030;2023-05-29T02:33:11;100011.47;;;16.37;53.93
67980;BME280;54760;47.490;19.030;2023-05-29T02:35:36;100020.97;;;16.18;54.54
67980;BME280;54760;47.490;19.030;2023-05-29T02:38:02;100012.19;;;15.92;55.71
67980;BME280;54760;47.490;19.030;2023-05-29T02:40:27;100013.00;;;16.11;55.50
67980;BME280;54760;47.490;19.030;2023-05-29T02:42:52;100011.91;;;16.18;55.36
67980;BME280;54760;47.490;19.030;2023-05-29T02:45:18;100010.69;;;16.10;55.70
67980;BME280;54760;47.490;19.030;2023-05-29T02:47:44;100006.87;;;16.16;55.69
67980;BME280;54760;47.490;19.030;2023-05-29T02:50:09;99999.97;;;16.48;54.93
67980;BME280;54760;47.490;19.030;2023-05-29T02:52:35;99994.88;;;16.10;56.21
67980;BME280;54760;47.490;19.030;2023-05-29T02:55:05;100003.94;;;16.01;56.54
67980;BME280;54760;47.490;19.030;2023-05-29T02:57:31;100002.22;;;16.04;56.73
67980;BME280;54760;47.490;19.030;2023-05-29T02:59:56;99999.03;;;16.24;56.12
67980;BME280;54760;47.490;19.030;2023-05-29T03:02:22;100003.31;;;15.97;57.32
67980;BME280;54760;47.490;19.030;2023-05-29T03:04:47;100005.75;;;15.95;57.53
67980;BME280;54760;47.490;19.030;2023-05-29T03:07:15;100007.56;;;15.80;58.28
67980;BME280;54760;47.490;19.030;2023-05-29T03:09:41;100002.56;;;15.57;59.24
67980;BME280;54760;47.490;19.030;2023-05-29T03:12:06;99997.47;;;16.04;57.82
67980;BME280;54760;47.490;19.030;2023-05-29T03:14:32;100003.28;;;15.88;58.51
67980;BME280;54760;47.490;19.030;2023-05-29T03:17:05;100007.56;;;15.89;58.53
67980;BME280;54760;47.490;19.030;2023-05-29T03:19:33;100001.88;;;15.75;59.33
67980;BME280;54760;47.490;19.030;2023-05-29T03:21:58;99998.53;;;15.98;58.53
67980;BME280;54760;47.490;19.030;2023-05-29T03:24:23;99999.47;;;16.13;58.09
67980;BME280;54760;47.490;19.030;2023-05-29T03:26:49;99998.09;;;16.09;58.16
67980;BME280;54760;47.490;19.030;2023-05-29T03:29:15;100002.56;;;16.24;57.87
67980;BME280;54760;47.490;19.030;2023-05-29T03:31:41;99999.69;;;16.37;57.60
67980;BME280;54760;47.490;19.030;2023-05-29T03:34:07;100008.72;;;16.56;57.26
67980;BME280;54760;47.490;19.030;2023-05-29T03:36:32;100011.78;;;16.48;57.61
67980;BME280;54760;47.490;19.030;2023-05-29T03:38:58;100009.34;;;16.51;57.58
67980;BME280;54760;47.490;19.030;2023-05-29T03:41:24;100009.03;;;16.39;58.24
67980;BME280;54760;47.490;19.030;2023-05-29T03:43:50;100023.94;;;16.60;57.54
67980;BME280;54760;47.490;19.030;2023-05-29T03:46:16;100022.84;;;16.67;57.29
67980;BME280;54760;47.490;19.030;2023-05-29T03:48:41;100032.31;;;16.02;59.22
67980;BME280;54760;47.490;19.030;2023-05-29T03:51:07;100034.75;;;16.00;59.95
67980;BME280;54760;47.490;19.030;2023-05-29T03:53:32;100035.16;;;16.66;57.70
67980;BME280;54760;47.490;19.030;2023-05-29T03:55:57;100044.16;;;16.57;58.48
67980;BME280;54760;47.490;19.030;2023-05-29T03:58:23;100039.25;;;16.34;59.60
67980;BME280;54760;47.490;19.030;2023-05-29T04:00:48;100037.75;;;16.69;58.74
67980;BME280;54760;47.490;19.030;2023-05-29T04:03:14;100042.84;;;16.80;58.71
67980;BME280;54760;47.490;19.030;2023-05-29T04:05:40;100042.19;;;16.67;59.28
67980;BME280;54760;47.490;19.030;2023-05-29T04:08:05;100041.28;;;16.70;59.42
67980;BME280;54760;47.490;19.030;2023-05-29T04:10:34;100041.31;;;16.61;59.60
67980;BME280;54760;47.490;19.030;2023-05-29T04:13:00;100045.59;;;16.62;59.59
67980;BME280;54760;47.490;19.030;2023-05-29T04:15:27;100041.28;;;16.88;58.84
67980;BME280;54760;47.490;19.030;2023-05-29T04:17:53;100041.56;;;16.35;59.55
67980;BME280;54760;47.490;19.030;2023-05-29T04:20:18;100045.44;;;16.65;59.46
67980;BME280;54760;47.490;19.030;2023-05-29T04:22:43;100046.03;;;16.97;58.66
67980;BME280;54760;47.490;19.030;2023-05-29T04:25:09;100039.75;;;16.87;58.68
67980;BME280;54760;47.490;19.030;2023-05-29T04:27:34;100043.56;;;16.99;58.71
67980;BME280;54760;47.490;19.030;2023-05-29T04:30:06;100050.66;;;16.81;59.44
67980;BME280;54760;47.490;19.030;2023-05-29T04:32:33;100044.78;;;16.98;58.75
67980;BME280;54760;47.490;19.030;2023-05-29T04:35:01;100053.19;;;17.21;57.89
67980;BME280;54760;47.490;19.030;2023-05-29T04:37:30;100050.47;;;17.12;58.34
67980;BME280;54760;47.490;19.030;2023-05-29T04:40:01;100048.25;;;17.25;57.88
67980;BME280;54760;47.490;19.030;2023-05-29T04:42:27;100052.56;;;17.26;58.18
67980;BME280;54760;47.490;19.030;2023-05-29T04:44:52;100054.78;;;17.04;58.89
67980;BME280;54760;47.490;19.030;2023-05-29T04:47:18;100046.69;;;17.43;57.79
67980;BME280;54760;47.490;19.030;2023-05-29T04:49:45;100048.53;;;17.46;58.19
67980;BME280;54760;47.490;19.030;2023-05-29T04:52:15;100052.19;;;17.61;57.81
67980;BME280;54760;47.490;19.030;2023-05-29T04:54:40;100048.78;;;17.66;58.08
67980;BME280;54760;47.490;19.030;2023-05-29T04:57:06;100048.47;;;17.55;58.49
67980;BME280;54760;47.490;19.030;2023-05-29T04:59:31;100058.94;;;17.69;57.99
67980;BME280;54760;47.490;19.030;2023-05-29T05:01:57;100060.03;;;17.95;57.18
67980;BME280;54760;47.490;19.030;2023-05-29T05:04:22;100059.19;;;18.13;56.70
67980;BME280;54760;47.490;19.030;2023-05-29T05:06:47;100065.06;;;18.06;57.09
67980;BME280;54760;47.490;19.030;2023-05-29T05:09:13;100057.50;;;18.06;57.19
67980;BME280;54760;47.490;19.030;2023-05-29T05:11:38;100065.75;;;18.15;57.11
67980;BME280;54760;47.490;19.030;2023-05-29T05:14:04;100061.13;;;18.22;57.20
67980;BME280;54760;47.490;19.030;2023-05-29T05:16:29;100062.16;;;18.00;58.40
67980;BME280;54760;47.490;19.030;2023-05-29T05:18:54;100056.16;;;18.26;57.57
67980;BME280;54760;47.490;19.030;2023-05-29T05:21:20;100055.97;;;18.29;56.93
67980;BME280;54760;47.490;19.030;2023-05-29T05:23:46;100067.87;;;18.44;56.20
67980;BME280;54760;47.490;19.030;2023-05-29T05:26:11;100067.84;;;18.53;55.77
67980;BME280;54760;47.490;19.030;2023-05-29T05:28:36;100064.25;;;18.77;55.07
67980;BME280;54760;47.490;19.030;2023-05-29T05:31:02;100061.50;;;18.91;54.69
67980;BME280;54760;47.490;19.030;2023-05-29T05:33:27;100062.59;;;19.09;54.14
67980;BME280;54760;47.490;19.030;2023-05-29T05:35:52;100063.84;;;19.08;53.95
67980;BME280;54760;47.490;19.030;2023-05-29T05:38:18;100064.81;;;19.34;52.97
67980;BME280;54760;47.490;19.030;2023-05-29T05:40:44;100059.34;;;19.25;52.95
67980;BME280;54760;47.490;19.030;2023-05-29T05:43:10;100054.47;;;19.34;52.29
67980;BME280;54760;47.490;19.030;2023-05-29T05:45:35;100064.91;;;19.39;52.38
67980;BME280;54760;47.490;19.030;2023-05-29T05:48:02;100058.06;;;19.70;51.34
67980;BME280;54760;47.490;19.030;2023-05-29T05:50:28;100064.00;;;19.77;50.85
67980;BME280;54760;47.490;19.030;2023-05-29T05:52:54;100064.94;;;19.89;50.18
67980;BME280;54760;47.490;19.030;2023-05-29T05:55:19;100062.78;;;20.13;49.51
67980;BME280;54760;47.490;19.030;2023-05-29T05:57:45;100063.66;;;20.25;49.00
67980;BME280;54760;47.490;19.030;2023-05-29T06:00:11;100072.13;;;20.30;48.19
67980;BME280;54760;47.490;19.030;2023-05-29T06:02:37;100073.03;;;20.42;48.17
67980;BME280;54760;47.490;19.030;2023-05-29T06:05:03;100071.50;;;20.61;47.83
67980;BME280;54760;47.490;19.030;2023-05-29T06:07:29;100068.13;;;20.77;46.89
67980;BME280;54760;47.490;19.030;2023-05-29T06:09:55;100071.09;;;21.46;45.24
67980;BME280;54760;47.490;19.030;2023-05-29T06:12:20;100079.31;;;22.34;43.13
67980;BME280;54760;47.490;19.030;2023-05-29T06:14:46;100069.66;;;22.95;41.32
67980;BME280;54760;47.490;19.030;2023-05-29T06:17:11;100076.84;;;23.51;40.47
67980;BME280;54760;47.490;19.030;2023-05-29T06:19:37;100081.41;;;23.43;40.20
67980;BME280;54760;47.490;19.030;2023-05-29T06:22:02;100082.91;;;23.33;40.78
67980;BME280;54760;47.490;19.030;2023-05-29T06:24:27;100080.25;;;22.74;42.05
67980;BME280;54760;47.490;19.030;2023-05-29T06:26:53;100087.03;;;22.62;42.05
67980;BME280;54760;47.490;19.030;2023-05-29T06:29:18;100085.72;;;22.52;42.18
67980;BME280;54760;47.490;19.030;2023-05-29T06:31:44;100084.00;;;22.12;42.67
67980;BME280;54760;47.490;19.030;2023-05-29T06:34:09;100092.28;;;22.48;42.27
67980;BME280;54760;47.490;19.030;2023-05-29T06:36:35;100096.88;;;22.52;42.18
67980;BME280;54760;47.490;19.030;2023-05-29T06:39:00;100090.78;;;22.53;42.16
67980;BME280;54760;47.490;19.030;2023-05-29T06:41:26;100089.84;;;22.67;41.66
67980;BME280;54760;47.490;19.030;2023-05-29T06:43:51;100098.72;;;22.66;42.01
67980;BME280;54760;47.490;19.030;2023-05-29T06:46:17;100096.56;;;23.03;41.67
67980;BME280;54760;47.490;19.030;2023-05-29T06:48:42;100096.56;;;23.03;41.60
67980;BME280;54760;47.490;19.030;2023-05-29T06:51:07;100085.16;;;22.96;41.90
67980;BME280;54760;47.490;19.030;2023-05-29T06:53:38;100095.81;;;22.92;42.17
67980;BME280;54760;47.490;19.030;2023-05-29T06:56:04;100092.25;;;22.91;42.06
67980;BME280;54760;47.490;19.030;2023-05-29T06:58:30;100092.53;;;23.10;42.08
67980;BME280;54760;47.490;19.030;2023-05-29T07:00:56;100093.75;;;22.92;42.31
67980;BME280;54760;47.490;19.030;2023-05-29T07:03:22;100100.41;;;23.11;41.91
67980;BME280;54760;47.490;19.030;2023-05-29T07:05:47;100096.56;;;23.03;42.29
67980;BME280;54760;47.490;19.030;2023-05-29T07:08:13;100098.91;;;23.32;41.51
67980;BME280;54760;47.490;19.030;2023-05-29T07:10:38;100104.00;;;23.40;41.27
67980;BME280;54760;47.490;19.030;2023-05-29T07:13:03;100103.22;;;23.11;41.89
67980;BME280;54760;47.490;19.030;2023-05-29T07:15:31;100095.66;;;23.56;41.52
67980;BME280;54760;47.490;19.030;2023-05-29T07:17:57;100092.09;;;23.67;40.94
67980;BME280;54760;47.490;19.030;2023-05-29T07:20:22;100102.50;;;23.61;41.42
67980;BME280;54760;47.490;19.030;2023-05-29T07:22:47;100098.44;;;23.84;40.89
67980;BME280;54760;47.490;19.030;2023-05-29T07:25:13;100097.63;;;24.23;40.54
67980;BME280;54760;47.490;19.030;2023-05-29T07:27:38;100105.00;;;24.26;40.67
67980;BME280;54760;47.490;19.030;2023-05-29T07:30:04;100101.34;;;24.53;39.65
67980;BME280;54760;47.490;19.030;2023-05-29T07:32:31;100114.41;;;24.11;40.63
67980;BME280;54760;47.490;19.030;2023-05-29T07:34:56;100120.97;;;24.42;40.29
67980;BME280;54760;47.490;19.030;2023-05-29T07:37:21;100110.38;;;24.18;40.33
67980;BME280;54760;47.490;19.030;2023-05-29T07:39:47;100118.97;;;24.26;40.63
67980;BME280;54760;47.490;19.030;2023-05-29T07:42:12;100128.63;;;24.30;40.87
67980;BME280;54760;47.490;19.030;2023-05-29T07:44:38;100126.09;;;24.27;40.81
67980;BME280;54760;47.490;19.030;2023-05-29T07:47:03;100135.25;;;24.16;41.18
67980;BME280;54760;47.490;19.030;2023-05-29T07:49:29;100138.81;;;24.00;42.18
67980;BME280;54760;47.490;19.030;2023-05-29T07:51:55;100146.19;;;24.20;41.96
67980;BME280;54760;47.490;19.030;2023-05-29T07:54:21;100134.75;;;24.06;42.09
67980;BME280;54760;47.490;19.030;2023-05-29T07:56:46;100144.88;;;24.43;41.69
67980;BME280;54760;47.490;19.030;2023-05-29T07:59:12;100140.78;;;24.49;42.25
67980;BME280;54760;47.490;19.030;2023-05-29T08:01:38;100132.66;;;24.40;42.40
67980;BME280;54760;47.490;19.030;2023-05-29T08:04:04;100140.25;;;24.56;42.26
67980;BME280;54760;47.490;19.030;2023-05-29T08:06:30;100137.75;;;24.42;42.18
67980;BME280;54760;47.490;19.030;2023-05-29T08:08:57;100137.53;;;24.29;42.29
67980;BME280;54760;47.490;19.030;2023-05-29T08:11:23;100132.41;;;24.44;42.21
67980;BME280;54760;47.490;19.030;2023-05-29T08:13:48;100125.78;;;24.47;42.00
67980;BME280;54760;47.490;19.030;2023-05-29T08:16:13;100125.75;;;24.58;41.87
67980;BME280;54760;47.490;19.030;2023-05-29T08:18:41;100125.09;;;24.02;43.01
67980;BME280;54760;47.490;19.030;2023-05-29T08:21:06;100123.28;;;24.43;42.81
67980;BME280;54760;47.490;19.030;2023-05-29T08:23:32;100123.66;;;24.75;42.68
67980;BME280;54760;47.490;19.030;2023-05-29T08:25:57;100117.56;;;24.66;42.28
67980;BME280;54760;47.490;19.030;2023-05-29T08:28:23;100113.97;;;24.76;41.59
67980;BME280;54760;47.490;19.030;2023-05-29T08:30:48;100118.87;;;25.52;40.48
67980;BME280;54760;47.490;19.030;2023-05-29T08:33:14;100118.31;;;25.65;39.89
67980;BME280;54760;47.490;19.030;2023-05-29T08:35:39;100113.69;;;25.67;40.06
67980;BME280;54760;47.490;19.030;2023-05-29T08:38:05;100118.16;;;25.11;41.27
67980;BME280;54760;47.490;19.030;2023-05-29T08:40:31;100112.06;;;25.77;39.50
67980;BME280;54760;47.490;19.030;2023-05-29T08:42:59;100118.44;;;26.32;38.53
67980;BME280;54760;47.490;19.030;2023-05-29T08:45:28;100110.47;;;26.12;37.97
67980;BME280;54760;47.490;19.030;2023-05-29T08:47:54;100110.16;;;25.91;38.43
67980;BME280;54760;47.490;19.030;2023-05-29T08:50:22;100109.13;;;25.29;39.60
67980;BME280;54760;47.490;19.030;2023-05-29T08:52:48;100110.44;;;25.87;38.80
67980;BME280;54760;47.490;19.030;2023-05-29T08:55:15;100101.22;;;26.17;37.98
67980;BME280;54760;47.490;19.030;2023-05-29T08:57:42;100108.41;;;25.88;37.96
67980;BME280;54760;47.490;19.030;2023-05-29T09:00:09;100103.72;;;26.69;37.10
67980;BME280;54760;47.490;19.030;2023-05-29T09:02:43;100103.47;;;26.48;37.53
67980;BME280;54760;47.490;19.030;2023-05-29T09:05:09;100101.72;;;27.07;36.33
67980;BME280;54760;47.490;19.030;2023-05-29T09:07:36;100100.88;;;27.44;35.94
67980;BME280;54760;47.490;19.030;2023-05-29T09:10:05;100108.03;;;27.77;35.75
67980;BME280;54760;47.490;19.030;2023-05-29T09:12:32;100111.91;;;27.61;35.02
67980;BME280;54760;47.490;19.030;2023-05-29T09:14:58;100111.03;;;27.47;35.50
67980;BME280;54760;47.490;19.030;2023-05-29T09:17:23;100117.63;;;27.17;35.70
67980;BME280;54760;47.490;19.030;2023-05-29T09:19:49;100111.41;;;27.06;36.20
67980;BME280;54760;47.490;19.030;2023-05-29T09:22:15;100115.59;;;27.69;35.56
67980;BME280;54760;47.490;19.030;2023-05-29T09:24:48;100117.38;;;27.85;34.50
67980;BME280;54760;47.490;19.030;2023-05-29T09:27:14;100107.59;;;27.41;35.76
67980;BME280;54760;47.490;19.030;2023-05-29T09:29:42;100104.13;;;27.16;36.18
67980;BME280;54760;47.490;19.030;2023-05-29T09:32:08;100100.25;;;27.83;35.31
67980;BME280;54760;47.490;19.030;2023-05-29T09:34:34;100114.59;;;28.11;34.65
67980;BME280;54760;47.490;19.030;2023-05-29T09:37:07;100109.56;;;27.46;35.44
67980;BME280;54760;47.490;19.030;2023-05-29T09:39:50;100117.44;;;27.47;35.54
67980;BME280;54760;47.490;19.030;2023-05-29T09:42:17;100116.56;;;27.21;35.81
67980;BME280;54760;47.490;19.030;2023-05-29T09:44:45;100113.09;;;27.14;35.96
67980;BME280;54760;47.490;19.030;2023-05-29T09:47:16;100120.81;;;26.90;36.45
67980;BME280;54760;47.490;19.030;2023-05-29T09:49:43;100122.69;;;26.82;36.37
67980;BME280;54760;47.490;19.030;2023-05-29T09:52:11;100121.66;;;26.42;37.10
67980;BME280;54760;47.490;19.030;2023-05-29T09:54:39;100121.97;;;26.38;37.29
67980;BME280;54760;47.490;19.030;2023-05-29T09:57:07;100122.25;;;26.05;37.59
67980;BME280;54760;47.490;19.030;2023-05-29T09:59:33;100116.53;;;26.16;37.92
67980;BME280;54760;47.490;19.030;2023-05-29T10:02:02;100122.50;;;26.07;38.11
67980;BME280;54760;47.490;19.030;2023-05-29T10:04:30;100120.62;;;26.63;37.33
67980;BME280;54760;47.490;19.030;2023-05-29T10:07:00;100126.53;;;26.11;38.08
67980;BME280;54760;47.490;19.030;2023-05-29T10:09:29;100128.09;;;26.37;37.84
67980;BME280;54760;47.490;19.030;2023-05-29T10:11:56;100127.84;;;25.45;39.32
67980;BME280;54760;47.490;19.030;2023-05-29T10:14:25;100142.81;;;25.88;38.58
67980;BME280;54760;47.490;19.030;2023-05-29T10:16:54;100134.19;;;26.11;38.43
67980;BME280;54760;47.490;19.030;2023-05-29T10:19:25;100133.81;;;25.96;38.74
67980;BME280;54760;47.490;19.030;2023-05-29T10:21:53;100138.16;;;25.97;38.71
67980;BME280;54760;47.490;19.030;2023-05-29T10:24:20;100138.63;;;25.71;39.53
67980;BME280;54760;47.490;19.030;2023-05-29T10:26:49;100143.16;;;25.44;40.06
67980;BME280;54760;47.490;19.030;2023-05-29T10:29:42;100141.38;;;25.41;41.26
67980;BME280;54760;47.490;19.030;2023-05-29T10:32:32;100131.34;;;25.86;39.17
67980;BME280;54760;47.490;19.030;2023-05-29T10:35:10;100135.97;;;26.14;38.65
67980;BME280;54760;47.490;19.030;2023-05-29T10:37:50;100134.31;;;25.70;39.99
67980;BME280;54760;47.490;19.030;2023-05-29T10:40:25;100129.44;;;26.30;39.56
67980;BME280;54760;47.490;19.030;2023-05-29T10:42:52;100128.22;;;26.20;38.84
67980;BME280;54760;47.490;19.030;2023-05-29T10:50:38;100115.97;;;25.99;39.38
67980;BME280;54760;47.490;19.030;2023-05-29T10:53:06;100116.09;;;26.36;39.45
67980;BME280;54760;47.490;19.030;2023-05-29T10:55:36;100116.06;;;26.12;39.47
67980;BME280;54760;47.490;19.030;2023-05-29T10:58:08;100114.91;;;25.72;40.24
67980;BME280;54760;47.490;19.030;2023-05-29T11:00:39;100114.06;;;25.82;40.19
67980;BME280;54760;47.490;19.030;2023-05-29T11:03:09;100116.41;;;25.78;40.60
67980;BME280;54760;47.490;19.030;2023-05-29T11:08:35;100115.84;;;25.56;41.40
67980;BME280;54760;47.490;19.030;2023-05-29T11:11:02;100115.31;;;25.16;42.41
67980;BME280;54760;47.490;19.030;2023-05-29T11:13:35;100115.44;;;24.94;43.69
67980;BME280;54760;47.490;19.030;2023-05-29T11:16:35;100115.16;;;24.97;45.02
67980;BME280;54760;47.490;19.030;2023-05-29T11:19:06;100124.69;;;24.72;44.92
67980;BME280;54760;47.490;19.030;2023-05-29T11:24:22;100117.06;;;24.67;44.54
67980;BME280;54760;47.490;19.030;2023-05-29T11:26:50;100119.97;;;24.34;44.44
67980;BME280;54760;47.490;19.030;2023-05-29T11:29:21;100115.19;;;24.23;45.41
67980;BME280;54760;47.490;19.030;2023-05-29T11:31:49;100107.44;;;24.57;44.83
67980;BME280;54760;47.490;19.030;2023-05-29T11:34:20;100108.34;;;24.87;44.43
67980;BME280;54760;47.490;19.030;2023-05-29T11:36:47;100105.53;;;24.19;45.47
67980;BME280;54760;47.490;19.030;2023-05-29T11:39:14;100112.75;;;24.60;44.51
67980;BME280;54760;47.490;19.030;2023-05-29T11:41:40;100121.25;;;24.33;44.68
67980;BME280;54760;47.490;19.030;2023-05-29T11:44:05;100108.44;;;24.54;44.46
67980;BME280;54760;47.490;19.030;2023-05-29T11:46:31;100098.16;;;24.90;42.87
67980;BME280;54760;47.490;19.030;2023-05-29T11:49:01;100099.72;;;24.74;43.38
67980;BME280;54760;47.490;19.030;2023-05-29T11:51:27;100088.37;;;24.50;44.04
67980;BME280;54760;47.490;19.030;2023-05-29T11:53:52;100097.16;;;24.87;43.93
67980;BME280;54760;47.490;19.030;2023-05-29T11:56:29;100093.12;;;25.18;42.28
67980;BME280;54760;47.490;19.030;2023-05-29T11:58:58;100078.44;;;25.42;41.76
67980;BME280;54760;47.490;19.030;2023-05-29T12:01:25;100070.44;;;25.57;42.03
67980;BME280;54760;47.490;19.030;2023-05-29T12:03:51;100068.97;;;25.80;41.68
67980;BME280;54760;47.490;19.030;2023-05-29T12:06:33;100061.44;;;25.94;40.82
67980;BME280;54760;47.490;19.030;2023-05-29T12:09:02;100054.37;;;26.36;39.37
67980;BME280;54760;47.490;19.030;2023-05-29T12:11:29;100057.63;;;26.40;39.48
67980;BME280;54760;47.490;19.030;2023-05-29T12:13:58;100051.38;;;25.50;41.56
67980;BME280;54760;47.490;19.030;2023-05-29T12:16:31;100050.63;;;25.50;41.48
67980;BME280;54760;47.490;19.030;2023-05-29T12:18:59;100043.06;;;26.42;39.37
67980;BME280;54760;47.490;19.030;2023-05-29T12:21:26;100049.22;;;26.16;39.97
67980;BME280;54760;47.490;19.030;2023-05-29T12:23:53;100047.03;;;25.84;39.79
67980;BME280;54760;47.490;19.030;2023-05-29T12:26:22;100041.53;;;26.22;39.79
67980;BME280;54760;47.490;19.030;2023-05-29T12:28:49;100039.75;;;26.19;39.85
67980;BME280;54760;47.490;19.030;2023-05-29T12:31:28;100042.62;;;26.75;38.48
67980;BME280;54760;47.490;19.030;2023-05-29T12:33:59;100031.97;;;26.06;40.20
67980;BME280;54760;47.490;19.030;2023-05-29T12:36:25;100031.59;;;25.97;40.42
67980;BME280;54760;47.490;19.030;2023-05-29T12:38:52;100029.38;;;26.14;40.33
67980;BME280;54760;47.490;19.030;2023-05-29T12:41:25;100027.00;;;26.61;39.22
67980;BME280;54760;47.490;19.030;2023-05-29T12:43:53;100024.75;;;26.97;38.10
67980;BME280;54760;47.490;19.030;2023-05-29T12:46:20;100024.69;;;26.78;37.70
67980;BME280;54760;47.490;19.030;2023-05-29T12:48:46;100025.78;;;26.75;36.70
67980;BME280;54760;47.490;19.030;2023-05-29T12:51:11;100022.69;;;27.29;35.84
67980;BME280;54760;47.490;19.030;2023-05-29T12:53:37;100025.72;;;27.31;34.93